Reed City, Michigan
Current Conditions -  °F | °C
As of 6:14 AM on Monday 20 Oct 2014 (Local Time) from KRQB Reporting Station
Haze Haze  
Wind Chill: 45°   Ceiling: Unl
Heat Index: 47°   Visibility: 5mi
Dew Point: 47°   Wind: 5mph
Humidity: 100%   Direction: 160°SSE
Pressure: 29.77"   Gusts: NA
Location:  43.88°N, 85.51°W
Report Text: KRQB 201014Z AUTO 16004KT 5SM BR SCT008 08/08 A2977 RMK AO2 T00820082
Loading
Personal Weather Stations






























Interactive Weather Map
Tropical Storm Tracking
New forecast layout! Learn more

10-Day Weather Forecast

Advertisements
Track Severe Weather on mobile